createdAt,value
2022-12-31T00:01:11.285Z,6.39
2022-12-31T00:03:40.635Z,6.41
2022-12-31T00:06:21.737Z,6.41
2022-12-31T00:08:51.687Z,6.41
2022-12-31T00:11:20.735Z,6.42
2022-12-31T00:13:50.100Z,6.68
2022-12-31T00:16:23.399Z,6.74
2022-12-31T00:18:55.942Z,6.92
2022-12-31T00:21:24.578Z,7.15
2022-12-31T00:23:53.958Z,7.23
2022-12-31T00:26:25.865Z,7.29
2022-12-31T00:28:55.796Z,7.35
2022-12-31T00:31:28.722Z,7.43
2022-12-31T00:33:57.743Z,7.42
2022-12-31T00:36:29.708Z,7.42
2022-12-31T00:39:00.656Z,7.33
2022-12-31T00:41:30.456Z,7.40
2022-12-31T00:43:59.259Z,7.36
2022-12-31T00:46:29.129Z,7.39
2022-12-31T00:48:57.810Z,7.25
2022-12-31T00:51:27.571Z,7.35
2022-12-31T00:53:57.351Z,7.40
2022-12-31T00:56:28.750Z,7.37
2022-12-31T00:58:57.894Z,7.32
2022-12-31T01:01:31.517Z,7.20
2022-12-31T01:04:03.662Z,7.07
2022-12-31T01:06:32.595Z,6.82
2022-12-31T01:09:00.899Z,6.59
2022-12-31T01:11:30.080Z,6.52
2022-12-31T01:14:00.428Z,6.51
2022-12-31T01:16:33.549Z,6.69
2022-12-31T01:19:05.537Z,6.77
2022-12-31T01:21:35.557Z,6.81
2022-12-31T01:24:04.535Z,6.75
2022-12-31T01:26:33.154Z,6.87
2022-12-31T01:29:02.104Z,6.79
2022-12-31T01:31:33.892Z,6.80
2022-12-31T01:34:02.820Z,6.84
2022-12-31T01:36:34.093Z,6.93
2022-12-31T01:39:06.496Z,7.15
2022-12-31T01:41:39.252Z,7.31
2022-12-31T01:44:51.806Z,7.56
2022-12-31T01:47:34.544Z,7.75
2022-12-31T01:50:11.594Z,7.85
2022-12-31T01:52:46.184Z,7.93
2022-12-31T01:55:22.365Z,7.98
2022-12-31T01:57:56.251Z,7.95
2022-12-31T02:00:24.883Z,7.98
2022-12-31T02:02:55.114Z,7.90
2022-12-31T02:05:30.233Z,7.87
2022-12-31T02:07:59.987Z,7.81
2022-12-31T02:10:28.291Z,7.78
2022-12-31T02:12:57.278Z,7.92
2022-12-31T02:15:34.108Z,7.95
2022-12-31T02:18:13.871Z,7.92
2022-12-31T02:21:17.868Z,7.85
2022-12-31T02:24:21.033Z,7.88
2022-12-31T02:27:03.003Z,7.83
2022-12-31T02:30:22.543Z,7.89
2022-12-31T02:33:09.403Z,7.84
2022-12-31T02:35:49.679Z,7.91
2022-12-31T02:38:26.334Z,7.99
2022-12-31T02:40:55.461Z,7.99
2022-12-31T02:43:24.449Z,7.99
2022-12-31T02:46:06.679Z,8.11
2022-12-31T02:48:48.043Z,8.11
2022-12-31T02:51:36.182Z,8.09
2022-12-31T02:54:27.320Z,8.17
2022-12-31T02:57:14.634Z,8.21
2022-12-31T03:00:11.869Z,8.29
2022-12-31T03:02:46.743Z,8.42
2022-12-31T03:05:18.661Z,8.59
2022-12-31T03:07:47.315Z,8.61
2022-12-31T03:10:16.306Z,8.80
2022-12-31T03:12:47.680Z,8.84
2022-12-31T03:15:22.517Z,8.87
2022-12-31T03:17:56.389Z,8.92
2022-12-31T03:20:48.169Z,8.88
2022-12-31T03:23:21.532Z,8.82
2022-12-31T03:25:49.321Z,8.76
2022-12-31T03:28:20.711Z,8.59
2022-12-31T03:30:53.018Z,8.59
2022-12-31T03:33:23.774Z,8.69
2022-12-31T03:35:54.100Z,8.72
2022-12-31T03:38:23.017Z,8.67
2022-12-31T03:40:55.156Z,8.60
2022-12-31T03:43:23.968Z,8.59
2022-12-31T03:45:54.160Z,8.63
2022-12-31T03:48:24.584Z,8.72
2022-12-31T03:50:53.259Z,8.73
2022-12-31T03:53:21.876Z,8.69
2022-12-31T03:55:53.107Z,8.56
2022-12-31T03:58:21.506Z,8.42
2022-12-31T04:00:50.444Z,8.49
2022-12-31T04:03:18.815Z,8.55
2022-12-31T04:05:54.608Z,8.56
2022-12-31T04:08:23.242Z,8.42
2022-12-31T04:10:51.698Z,8.60
2022-12-31T04:13:20.361Z,8.67
2022-12-31T04:15:52.291Z,8.53
2022-12-31T04:18:20.935Z,8.53
2022-12-31T04:20:50.601Z,8.56
2022-12-31T04:23:19.293Z,8.53
2022-12-31T04:25:47.899Z,8.56
2022-12-31T04:28:16.189Z,8.46
2022-12-31T04:30:44.939Z,8.58
2022-12-31T04:33:13.778Z,8.69
2022-12-31T04:35:42.160Z,8.64
2022-12-31T04:38:12.090Z,8.60
2022-12-31T04:41:00.784Z,8.45
2022-12-31T04:43:29.396Z,8.46
2022-12-31T04:45:58.103Z,8.47
2022-12-31T04:48:26.844Z,8.50
2022-12-31T04:50:55.070Z,8.42
2022-12-31T04:53:24.959Z,8.37
2022-12-31T04:55:53.357Z,8.26
2022-12-31T04:58:22.365Z,8.34
2022-12-31T05:00:54.643Z,8.53
2022-12-31T05:03:25.603Z,8.53
2022-12-31T05:05:54.941Z,8.53
2022-12-31T05:08:24.564Z,8.55
2022-12-31T05:10:53.150Z,8.60
2022-12-31T05:13:21.760Z,8.55
2022-12-31T05:15:50.134Z,8.57
2022-12-31T05:18:19.238Z,8.50
2022-12-31T05:20:47.925Z,8.51
2022-12-31T05:23:17.768Z,8.51
2022-12-31T05:25:49.357Z,8.62
2022-12-31T05:28:18.770Z,8.63
2022-12-31T05:30:50.929Z,8.76
2022-12-31T05:33:19.982Z,8.78
2022-12-31T05:35:48.515Z,8.79
2022-12-31T05:38:17.120Z,8.83
2022-12-31T05:40:47.141Z,8.80
2022-12-31T05:43:15.907Z,8.80
2022-12-31T05:45:44.540Z,8.89
2022-12-31T05:48:13.124Z,8.87
2022-12-31T05:50:41.699Z,8.98
2022-12-31T05:53:09.943Z,9.08
2022-12-31T05:55:38.202Z,9.11
2022-12-31T05:58:07.897Z,9.20
2022-12-31T06:00:36.141Z,9.12
2022-12-31T06:03:05.655Z,9.03
2022-12-31T06:05:34.412Z,9.05
2022-12-31T06:08:02.995Z,9.06
2022-12-31T06:10:31.313Z,9.11
2022-12-31T06:12:59.930Z,9.08
2022-12-31T06:15:29.664Z,9.05
2022-12-31T06:17:58.805Z,9.08
2022-12-31T06:20:27.859Z,9.07
2022-12-31T06:22:56.093Z,9.05
2022-12-31T06:25:24.408Z,9.06
2022-12-31T06:27:52.678Z,9.01
2022-12-31T06:30:20.917Z,9.02
2022-12-31T06:32:50.598Z,9.01
2022-12-31T06:35:19.738Z,8.95
2022-12-31T06:37:48.355Z,8.82
2022-12-31T06:40:17.179Z,8.68
2022-12-31T06:42:45.866Z,8.48
2022-12-31T06:45:14.149Z,8.38
2022-12-31T06:47:42.883Z,8.47
2022-12-31T06:50:12.919Z,8.40
2022-12-31T06:52:41.555Z,8.30
2022-12-31T06:55:12.085Z,8.31
2022-12-31T06:57:41.242Z,8.25
2022-12-31T07:00:12.210Z,8.15
2022-12-31T07:03:08.820Z,8.08
2022-12-31T07:05:47.788Z,7.91
2022-12-31T07:08:35.895Z,7.80
2022-12-31T07:11:13.907Z,7.69
2022-12-31T07:13:58.177Z,7.55
2022-12-31T07:16:47.088Z,7.50
2022-12-31T07:19:31.073Z,7.55
2022-12-31T07:22:01.612Z,7.59
2022-12-31T07:24:30.682Z,7.46
2022-12-31T07:27:20.491Z,7.28
2022-12-31T07:30:07.704Z,7.14
2022-12-31T07:33:23.528Z,7.06
2022-12-31T07:36:11.359Z,6.92
2022-12-31T07:38:52.752Z,6.97
2022-12-31T07:41:41.264Z,6.85
2022-12-31T07:44:38.920Z,6.76
2022-12-31T07:47:21.788Z,6.83
2022-12-31T07:49:51.272Z,6.85
2022-12-31T07:52:20.970Z,6.89
2022-12-31T07:54:50.991Z,7.03
2022-12-31T07:57:22.594Z,7.06
2022-12-31T08:00:06.565Z,7.19
2022-12-31T08:03:06.067Z,7.28
2022-12-31T08:05:49.692Z,7.38
2022-12-31T08:08:37.138Z,7.48
2022-12-31T08:11:20.763Z,7.52
2022-12-31T08:13:50.333Z,7.63
2022-12-31T08:16:19.677Z,7.78
2022-12-31T08:18:48.746Z,8.05
2022-12-31T08:21:34.974Z,8.20
2022-12-31T08:24:19.901Z,8.34
2022-12-31T08:27:05.906Z,8.35
2022-12-31T08:29:43.018Z,8.38
2022-12-31T08:32:21.943Z,8.50
2022-12-31T08:35:04.209Z,8.70
2022-12-31T08:37:40.935Z,8.88
2022-12-31T08:40:23.733Z,9.06
2022-12-31T08:43:25.886Z,9.25
2022-12-31T08:45:56.846Z,9.39
2022-12-31T08:48:34.723Z,9.42
2022-12-31T08:51:03.593Z,9.45
2022-12-31T08:53:32.760Z,9.54
2022-12-31T08:56:23.646Z,9.71
2022-12-31T08:59:05.035Z,9.79
2022-12-31T09:01:51.465Z,10.02
2022-12-31T09:04:32.181Z,10.24
2022-12-31T09:07:04.896Z,10.39
2022-12-31T09:09:44.580Z,10.47
2022-12-31T09:12:26.092Z,10.46
2022-12-31T09:15:04.882Z,10.38
2022-12-31T09:17:47.307Z,10.35
2022-12-31T09:20:26.118Z,10.36
2022-12-31T09:22:57.064Z,10.42
2022-12-31T09:25:27.698Z,10.57
2022-12-31T09:28:15.461Z,10.75
2022-12-31T09:30:55.808Z,10.82
2022-12-31T09:33:44.450Z,10.78
2022-12-31T09:36:20.375Z,10.79
2022-12-31T09:39:01.867Z,10.76
2022-12-31T09:42:36.394Z,10.69
2022-12-31T09:45:46.444Z,10.62
2022-12-31T09:49:10.639Z,10.61
2022-12-31T09:51:53.380Z,10.67
2022-12-31T09:54:51.314Z,10.84
2022-12-31T09:57:40.789Z,10.98
2022-12-31T10:00:21.371Z,11.13
2022-12-31T10:03:17.717Z,11.16
2022-12-31T10:06:13.385Z,11.18
2022-12-31T10:09:22.303Z,11.23
2022-12-31T10:12:19.655Z,11.25
2022-12-31T10:15:01.402Z,11.26
2022-12-31T10:17:52.129Z,11.21
2022-12-31T10:20:52.046Z,11.28
2022-12-31T10:23:57.796Z,11.46
2022-12-31T10:26:54.271Z,11.64
2022-12-31T10:29:40.947Z,11.85
2022-12-31T10:32:21.359Z,12.06
2022-12-31T10:35:02.516Z,12.17
2022-12-31T10:37:42.361Z,12.17
2022-12-31T10:40:31.146Z,12.19
2022-12-31T10:43:55.192Z,12.18
2022-12-31T10:47:06.829Z,12.08
2022-12-31T10:50:15.377Z,12.00
2022-12-31T10:53:37.458Z,11.89
2022-12-31T10:57:08.028Z,11.92
2022-12-31T11:00:03.688Z,11.89
2022-12-31T11:03:21.078Z,11.96
2022-12-31T11:06:45.533Z,12.04
2022-12-31T11:10:04.345Z,12.13
2022-12-31T11:13:09.000Z,12.20
2022-12-31T11:16:07.589Z,12.20
2022-12-31T11:18:49.177Z,12.20
2022-12-31T11:21:36.296Z,12.18
2022-12-31T11:24:25.387Z,12.16
2022-12-31T11:27:16.456Z,12.21
2022-12-31T11:30:05.452Z,12.41
2022-12-31T11:32:50.826Z,12.53
2022-12-31T11:35:39.161Z,12.68
2022-12-31T11:38:25.437Z,12.70
2022-12-31T11:41:03.709Z,12.81
2022-12-31T11:43:39.854Z,12.91
2022-12-31T11:46:35.112Z,13.02
2022-12-31T11:49:18.361Z,13.16
2022-12-31T11:52:16.069Z,13.30
2022-12-31T11:55:19.965Z,13.42
2022-12-31T11:57:52.244Z,13.57
2022-12-31T12:00:24.370Z,13.73
2022-12-31T12:03:00.518Z,13.79
2022-12-31T12:05:29.802Z,13.83
2022-12-31T12:07:58.323Z,13.94
2022-12-31T12:10:36.009Z,14.02
2022-12-31T12:13:16.105Z,14.06
2022-12-31T12:15:50.049Z,14.11
2022-12-31T12:18:41.043Z,14.16
2022-12-31T12:21:13.725Z,14.20
2022-12-31T12:23:43.450Z,14.22
2022-12-31T12:26:29.365Z,14.29
2022-12-31T12:29:09.103Z,14.29
2022-12-31T12:31:38.264Z,14.47
2022-12-31T12:34:24.297Z,15.35
2022-12-31T12:36:52.956Z,16.08
2022-12-31T12:39:25.064Z,16.35
2022-12-31T12:42:09.438Z,16.22
2022-12-31T12:44:38.081Z,15.90
2022-12-31T12:47:12.668Z,16.03
2022-12-31T12:49:47.534Z,16.75
2022-12-31T12:52:42.008Z,17.28
2022-12-31T12:55:24.540Z,17.68
2022-12-31T12:58:05.223Z,17.38
2022-12-31T13:00:39.261Z,16.99
2022-12-31T13:04:07.410Z,16.97
2022-12-31T13:06:53.193Z,17.08
2022-12-31T13:09:43.985Z,16.79
2022-12-31T13:12:25.080Z,16.60
2022-12-31T13:15:03.505Z,16.67
2022-12-31T13:18:01.274Z,16.22
2022-12-31T13:20:39.140Z,16.09
2022-12-31T13:23:23.071Z,15.96
2022-12-31T13:26:07.536Z,15.79
2022-12-31T13:28:40.419Z,15.48
2022-12-31T13:31:17.730Z,15.42
2022-12-31T13:33:53.486Z,15.49
2022-12-31T13:36:26.606Z,15.33
2022-12-31T13:38:58.995Z,15.10
2022-12-31T13:41:35.415Z,15.17
2022-12-31T13:44:14.201Z,15.13
2022-12-31T13:46:51.896Z,14.97
2022-12-31T13:49:28.175Z,14.76
2022-12-31T13:52:06.781Z,14.52
2022-12-31T13:54:47.290Z,14.26
2022-12-31T13:57:31.171Z,14.12
2022-12-31T14:00:04.826Z,13.95
2022-12-31T14:02:48.857Z,13.83
2022-12-31T14:05:24.347Z,13.72
2022-12-31T14:07:57.565Z,13.55
2022-12-31T14:10:45.623Z,13.34
2022-12-31T14:13:42.900Z,13.13
2022-12-31T14:16:24.006Z,12.88
2022-12-31T14:19:06.240Z,12.62
2022-12-31T14:21:44.702Z,12.43
2022-12-31T14:24:21.347Z,12.29
2022-12-31T14:26:57.858Z,12.13
2022-12-31T14:29:35.021Z,11.84
2022-12-31T14:32:46.688Z,11.52
2022-12-31T14:35:36.060Z,11.19
2022-12-31T14:38:15.621Z,11.20
2022-12-31T14:41:01.013Z,10.89
2022-12-31T14:43:45.183Z,10.59
2022-12-31T14:46:25.468Z,10.53
2022-12-31T14:49:08.842Z,10.36
2022-12-31T14:51:38.977Z,10.20
2022-12-31T14:54:28.559Z,10.02
2022-12-31T14:56:57.528Z,9.83
2022-12-31T14:59:33.345Z,9.79
2022-12-31T15:02:20.960Z,9.59
2022-12-31T15:04:49.733Z,9.48
2022-12-31T15:07:31.384Z,9.39
2022-12-31T15:10:12.372Z,9.25
2022-12-31T15:12:52.581Z,9.23
2022-12-31T15:15:43.856Z,9.28
2022-12-31T15:18:37.016Z,9.31
2022-12-31T15:21:34.354Z,9.19
2022-12-31T15:24:03.454Z,9.21
2022-12-31T15:26:34.721Z,9.16
2022-12-31T15:29:06.212Z,9.13
2022-12-31T15:31:37.700Z,8.91
2022-12-31T15:34:22.151Z,8.78
2022-12-31T15:36:54.866Z,8.65
2022-12-31T15:39:37.765Z,8.52
2022-12-31T15:42:38.651Z,8.48
2022-12-31T15:45:18.318Z,8.45
2022-12-31T15:47:57.087Z,8.21
2022-12-31T15:50:26.989Z,8.23
2022-12-31T15:52:58.375Z,8.30
2022-12-31T15:55:34.918Z,8.18
2022-12-31T15:58:08.262Z,8.15
2022-12-31T16:00:53.097Z,7.97
2022-12-31T16:03:28.171Z,7.86
2022-12-31T16:06:01.301Z,7.80
2022-12-31T16:08:32.947Z,7.77
2022-12-31T16:11:04.288Z,7.63
2022-12-31T16:13:37.631Z,7.55
2022-12-31T16:16:09.322Z,7.50
2022-12-31T16:18:40.687Z,7.54
2022-12-31T16:21:25.557Z,7.71
2022-12-31T16:23:55.617Z,7.72
2022-12-31T16:26:26.421Z,7.59
2022-12-31T16:28:59.903Z,7.64
2022-12-31T16:31:30.801Z,7.66
2022-12-31T16:34:15.907Z,7.60
2022-12-31T16:36:55.134Z,7.61
2022-12-31T16:39:31.716Z,7.57
2022-12-31T16:42:19.835Z,7.59
2022-12-31T16:44:48.930Z,7.64
2022-12-31T16:47:21.441Z,7.74
2022-12-31T16:50:00.023Z,7.89
2022-12-31T16:52:34.634Z,7.91
2022-12-31T16:55:08.201Z,7.92
2022-12-31T16:57:37.232Z,7.81
2022-12-31T17:00:08.163Z,7.85
2022-12-31T17:02:40.216Z,8.02
2022-12-31T17:05:20.349Z,8.12
2022-12-31T17:07:49.443Z,8.02
2022-12-31T17:10:23.563Z,8.03
2022-12-31T17:15:46.178Z,7.85
2022-12-31T17:18:20.217Z,7.73
2022-12-31T17:20:52.078Z,7.71
2022-12-31T17:23:27.763Z,7.64
2022-12-31T17:26:01.646Z,7.60
2022-12-31T17:28:42.909Z,7.42
2022-12-31T17:31:37.344Z,7.36
2022-12-31T17:34:19.077Z,7.36
2022-12-31T17:36:58.640Z,7.39
2022-12-31T17:39:29.091Z,7.33
2022-12-31T17:41:59.593Z,7.35
2022-12-31T17:44:29.674Z,7.31
2022-12-31T17:46:58.638Z,7.26
2022-12-31T17:49:31.167Z,7.24
2022-12-31T17:52:00.765Z,7.21
2022-12-31T17:54:29.383Z,7.23
2022-12-31T17:56:58.869Z,7.30
2022-12-31T17:59:30.521Z,7.38
2022-12-31T18:02:02.521Z,7.47
2022-12-31T18:04:31.230Z,7.52
2022-12-31T18:07:01.177Z,7.59
2022-12-31T18:09:29.771Z,7.58
2022-12-31T18:12:01.460Z,7.59
2022-12-31T18:14:30.417Z,7.55
2022-12-31T18:16:59.014Z,7.53
2022-12-31T18:20:02.939Z,7.41
2022-12-31T18:22:18.459Z,7.33
2022-12-31T18:24:47.093Z,7.27
2022-12-31T18:27:18.454Z,7.28
2022-12-31T18:29:47.794Z,7.28
2022-12-31T18:32:23.874Z,7.20
2022-12-31T18:34:53.050Z,7.19
2022-12-31T18:37:23.364Z,7.12
2022-12-31T18:39:51.952Z,7.20
2022-12-31T18:42:24.201Z,7.29
2022-12-31T18:44:53.163Z,7.27
2022-12-31T18:47:23.203Z,7.27
2022-12-31T18:49:52.087Z,7.28
2022-12-31T18:52:25.109Z,7.22
2022-12-31T18:54:53.693Z,7.18
2022-12-31T18:57:22.257Z,7.23
2022-12-31T18:59:50.463Z,7.32
2022-12-31T19:02:21.176Z,7.36
2022-12-31T19:04:49.792Z,7.33
2022-12-31T19:07:18.403Z,7.25
2022-12-31T19:09:51.395Z,7.23
2022-12-31T19:12:23.083Z,7.13
2022-12-31T19:14:51.300Z,7.03
2022-12-31T19:17:21.555Z,6.98
2022-12-31T19:19:49.803Z,6.90
2022-12-31T19:22:18.434Z,6.82
2022-12-31T19:24:48.423Z,6.80
2022-12-31T19:27:17.071Z,6.71
2022-12-31T19:29:46.034Z,6.68
2022-12-31T19:32:14.850Z,6.70
2022-12-31T19:34:43.739Z,6.72
2022-12-31T19:37:16.351Z,6.68
2022-12-31T19:39:44.763Z,6.59
2022-12-31T19:42:17.174Z,6.55
2022-12-31T19:44:45.830Z,6.48
2022-12-31T19:47:14.552Z,6.46
2022-12-31T19:49:43.164Z,6.45
2022-12-31T19:52:12.369Z,6.45
2022-12-31T19:54:41.057Z,6.50
2022-12-31T19:57:09.738Z,6.54
2022-12-31T19:59:39.681Z,6.56
2022-12-31T20:02:08.511Z,6.51
2022-12-31T20:04:37.204Z,6.46
2022-12-31T20:07:06.363Z,6.41
2022-12-31T20:09:34.961Z,6.36
2022-12-31T20:12:03.575Z,6.35
2022-12-31T20:14:32.167Z,6.31
2022-12-31T20:17:01.880Z,6.34
2022-12-31T20:19:30.452Z,6.24
2022-12-31T20:21:59.574Z,6.27
2022-12-31T20:24:27.870Z,6.19
2022-12-31T20:26:56.453Z,6.03
2022-12-31T20:29:25.094Z,5.84
2022-12-31T20:31:53.834Z,5.85
2022-12-31T20:34:23.909Z,5.77
2022-12-31T20:36:52.639Z,5.78
2022-12-31T20:39:21.302Z,5.89
2022-12-31T20:41:49.844Z,5.72
2022-12-31T20:44:18.471Z,5.50
2022-12-31T20:46:47.246Z,5.55
2022-12-31T20:49:15.979Z,5.45
2022-12-31T20:51:51.849Z,5.41
2022-12-31T20:54:20.836Z,5.71
2022-12-31T20:56:49.531Z,5.73
2022-12-31T20:59:18.229Z,5.77
2022-12-31T21:02:19.925Z,5.71
2022-12-31T21:04:35.603Z,5.76
2022-12-31T21:07:05.364Z,5.79
2022-12-31T21:09:34.126Z,5.86
2022-12-31T21:12:20.103Z,5.99
2022-12-31T21:14:48.706Z,6.12
2022-12-31T21:17:17.324Z,6.16
2022-12-31T21:19:45.935Z,6.16
2022-12-31T21:22:15.721Z,6.18
2022-12-31T21:24:44.381Z,6.07
2022-12-31T21:27:13.169Z,6.01
2022-12-31T21:30:01.999Z,5.90
2022-12-31T21:32:29.974Z,5.96
2022-12-31T21:35:31.424Z,5.94
2022-12-31T21:37:58.923Z,5.99
2022-12-31T21:40:29.324Z,6.04
2022-12-31T21:42:57.760Z,6.17
2022-12-31T21:45:26.564Z,6.20
2022-12-31T21:48:12.637Z,6.22
2022-12-31T21:50:40.863Z,6.20
2022-12-31T21:53:10.999Z,6.21
2022-12-31T21:55:57.132Z,6.20
2022-12-31T21:58:27.412Z,6.03
2022-12-31T22:01:14.157Z,5.99
2022-12-31T22:03:43.103Z,5.99
2022-12-31T22:06:16.237Z,5.96
2022-12-31T22:08:49.196Z,6.07
2022-12-31T22:11:19.000Z,6.02
2022-12-31T22:13:47.904Z,6.02
2022-12-31T22:16:17.230Z,5.94
2022-12-31T22:18:45.987Z,5.90
2022-12-31T22:21:19.190Z,5.84
2022-12-31T22:23:52.148Z,5.82
2022-12-31T22:26:23.733Z,5.82
2022-12-31T22:28:52.662Z,5.69
2022-12-31T22:31:24.526Z,5.68
2022-12-31T22:33:53.880Z,5.60
2022-12-31T22:36:24.074Z,5.46
2022-12-31T22:38:58.751Z,5.56
2022-12-31T22:41:28.449Z,5.63
2022-12-31T22:44:03.935Z,5.58
2022-12-31T22:46:33.868Z,5.50
2022-12-31T22:49:05.206Z,5.42
2022-12-31T22:51:55.663Z,5.33
2022-12-31T22:54:23.983Z,5.31
2022-12-31T22:56:52.776Z,5.26
2022-12-31T22:59:21.496Z,5.21
2022-12-31T23:01:50.211Z,5.20
2022-12-31T23:04:18.983Z,5.23
2022-12-31T23:06:47.625Z,5.35
2022-12-31T23:09:35.604Z,5.43
2022-12-31T23:12:07.802Z,5.40
2022-12-31T23:14:54.366Z,5.30
2022-12-31T23:17:45.638Z,5.31
2022-12-31T23:20:34.210Z,5.42
2022-12-31T23:23:09.967Z,5.43
2022-12-31T23:25:41.067Z,5.40
2022-12-31T23:28:13.612Z,5.38
2022-12-31T23:30:43.673Z,5.32
2022-12-31T23:33:20.958Z,5.37
2022-12-31T23:35:49.968Z,5.21
2022-12-31T23:38:19.757Z,5.11
2022-12-31T23:40:48.384Z,5.07
2022-12-31T23:43:23.112Z,5.06
2022-12-31T23:45:52.163Z,5.01
2022-12-31T23:48:20.765Z,4.94
2022-12-31T23:50:53.859Z,4.90
2022-12-31T23:53:23.361Z,4.87
2022-12-31T23:55:52.078Z,4.91
2022-12-31T23:58:22.664Z,4.92
